createdAt,value
2023-02-19T00:00:20.793Z,98625.63
2023-02-19T00:02:53.132Z,98626.31
2023-02-19T00:05:23.680Z,98625.16
2023-02-19T00:07:52.063Z,98609.97
2023-02-19T00:10:21.011Z,98609.81
2023-02-19T00:12:51.266Z,98607.34
2023-02-19T00:15:20.302Z,98613.25
2023-02-19T00:17:50.212Z,98613.88
2023-02-19T00:20:21.412Z,98611.28
2023-02-19T00:22:51.920Z,98615.84
2023-02-19T00:25:22.410Z,98619.44
2023-02-19T00:27:54.423Z,98618.47
2023-02-19T00:30:23.034Z,98627.78
2023-02-19T00:32:53.058Z,98624.00
2023-02-19T00:35:22.544Z,98636.56
2023-02-19T00:37:52.209Z,98633.81
2023-02-19T00:40:23.495Z,98625.63
2023-02-19T00:42:54.495Z,98599.84
2023-02-19T00:45:23.383Z,98605.06
2023-02-19T00:47:52.277Z,98610.28
2023-02-19T00:50:22.863Z,98602.13
2023-02-19T00:52:52.695Z,98604.06
2023-02-19T00:55:21.608Z,98605.56
2023-02-19T00:57:51.010Z,98607.34
2023-02-19T01:00:23.129Z,98599.84
2023-02-19T01:02:52.509Z,98597.88
2023-02-19T01:05:23.814Z,98594.78
2023-02-19T01:07:54.411Z,98597.88
2023-02-19T01:10:24.838Z,98599.19
2023-02-19T01:12:54.289Z,98600.63
2023-02-19T01:15:25.141Z,98609.47
2023-02-19T01:17:54.658Z,98601.78
2023-02-19T01:20:24.004Z,98597.38
2023-02-19T01:22:52.963Z,98589.56
2023-02-19T01:25:22.526Z,98586.94
2023-02-19T01:27:52.207Z,98597.38
2023-02-19T01:30:21.181Z,98586.81
2023-02-19T01:32:51.859Z,98591.88
2023-02-19T01:35:21.374Z,98586.81
2023-02-19T01:37:50.845Z,98588.78
2023-02-19T01:40:21.693Z,98582.88
2023-02-19T01:42:51.805Z,98581.25
2023-02-19T01:45:28.001Z,98566.72
2023-02-19T01:48:11.584Z,98569.16
2023-02-19T01:50:47.496Z,98552.16
2023-02-19T01:53:23.549Z,98550.56
2023-02-19T01:56:00.391Z,98545.50
2023-02-19T01:58:35.710Z,98543.50
2023-02-19T02:01:10.590Z,98543.16
2023-02-19T02:03:46.343Z,98536.00
2023-02-19T02:06:23.332Z,98542.38
2023-02-19T02:09:12.038Z,98532.72
2023-02-19T02:11:46.324Z,98520.97
2023-02-19T02:14:16.454Z,98518.00
2023-02-19T02:17:01.992Z,98523.06
2023-02-19T02:20:14.578Z,98522.59
2023-02-19T02:22:53.836Z,98518.81
2023-02-19T02:26:11.781Z,98526.03
2023-02-19T02:29:46.472Z,98533.19
2023-02-19T02:32:21.881Z,98523.63
2023-02-19T02:34:56.192Z,98529.31
2023-02-19T02:37:29.477Z,98528.66
2023-02-19T02:40:01.560Z,98510.22
2023-02-19T02:42:31.637Z,98503.03
2023-02-19T02:45:37.048Z,98511.03
2023-02-19T02:48:35.058Z,98515.78
2023-02-19T02:51:17.474Z,98535.88
2023-02-19T02:54:10.554Z,98524.59
2023-02-19T02:56:44.142Z,98525.06
2023-02-19T02:59:19.029Z,98524.44
2023-02-19T03:02:11.827Z,98520.84
2023-02-19T03:05:10.639Z,98522.16
2023-02-19T03:07:46.622Z,98520.00
2023-02-19T03:10:24.867Z,98516.25
2023-02-19T03:13:15.735Z,98525.06
2023-02-19T03:16:16.962Z,98519.84
2023-02-19T03:19:12.410Z,98511.84
2023-02-19T03:21:47.049Z,98520.19
2023-02-19T03:24:36.905Z,98518.56
2023-02-19T03:27:08.280Z,98513.69
2023-02-19T03:29:43.383Z,98529.69
2023-02-19T03:32:19.250Z,98527.72
2023-02-19T03:34:56.739Z,98531.34
2023-02-19T03:37:34.581Z,98527.72
2023-02-19T03:40:04.220Z,98526.09
2023-02-19T03:42:45.419Z,98521.19
2023-02-19T03:45:38.138Z,98534.25
2023-02-19T03:48:35.155Z,98526.09
2023-02-19T03:51:33.189Z,98533.94
2023-02-19T03:54:17.821Z,98535.25
2023-02-19T03:56:54.871Z,98530.66
2023-02-19T03:59:36.066Z,98544.06
2023-02-19T04:02:13.286Z,98533.63
2023-02-19T04:04:51.048Z,98536.38
2023-02-19T04:07:20.719Z,98537.88
2023-02-19T04:09:55.152Z,98534.44
2023-02-19T04:12:25.985Z,98544.53
2023-02-19T04:15:01.903Z,98546.34
2023-02-19T04:17:38.514Z,98543.72
2023-02-19T04:20:13.624Z,98550.59
2023-02-19T04:22:45.394Z,98552.38
2023-02-19T04:25:17.041Z,98543.72
2023-02-19T04:27:47.769Z,98546.19
2023-02-19T04:30:18.665Z,98548.81
2023-02-19T04:32:48.741Z,98556.50
2023-02-19T04:35:19.454Z,98570.50
2023-02-19T04:37:50.072Z,98573.13
2023-02-19T04:40:21.523Z,98582.91
2023-02-19T04:42:51.318Z,98575.25
2023-02-19T04:45:21.852Z,98583.25
2023-02-19T04:47:50.928Z,98589.13
2023-02-19T04:50:20.835Z,98574.09
2023-02-19T04:52:49.751Z,98576.72
2023-02-19T04:55:21.186Z,98582.91
2023-02-19T04:57:50.751Z,98590.91
2023-02-19T05:00:22.022Z,98595.31
2023-02-19T05:02:52.004Z,98583.25
2023-02-19T05:05:20.980Z,98599.25
2023-02-19T05:07:51.529Z,98597.16
2023-02-19T05:10:21.291Z,98593.88
2023-02-19T05:12:52.643Z,98606.13
2023-02-19T05:15:22.862Z,98601.22
2023-02-19T05:17:51.793Z,98603.84
2023-02-19T05:20:23.579Z,98604.81
2023-02-19T05:22:52.697Z,98607.59
2023-02-19T05:25:24.021Z,98604.19
2023-02-19T05:28:15.249Z,98602.53
2023-02-19T05:30:44.401Z,98604.19
2023-02-19T05:33:15.613Z,98607.44
2023-02-19T05:35:47.133Z,98607.13
2023-02-19T05:38:20.241Z,98598.47
2023-02-19T05:40:52.354Z,98610.69
2023-02-19T05:43:22.470Z,98619.34
2023-02-19T05:45:52.617Z,98627.03
2023-02-19T05:48:22.928Z,98621.47
2023-02-19T05:50:52.438Z,98620.50
2023-02-19T05:53:25.187Z,98624.09
2023-02-19T05:55:56.990Z,98634.69
2023-02-19T05:58:29.693Z,98624.41
2023-02-19T06:01:00.644Z,98623.59
2023-02-19T06:03:31.336Z,98625.06
2023-02-19T06:06:01.643Z,98630.47
2023-02-19T06:08:32.040Z,98640.75
2023-02-19T06:11:04.287Z,98642.34
2023-02-19T06:13:34.657Z,98646.44
2023-02-19T06:16:08.376Z,98647.56
2023-02-19T06:18:41.002Z,98649.53
2023-02-19T06:21:13.256Z,98646.59
2023-02-19T06:23:44.436Z,98650.50
2023-02-19T06:26:18.860Z,98652.16
2023-02-19T06:28:50.756Z,98664.22
2023-02-19T06:31:21.598Z,98672.84
2023-02-19T06:33:52.300Z,98673.66
2023-02-19T06:36:22.914Z,98681.34
2023-02-19T06:38:53.006Z,98691.28
2023-02-19T06:41:24.763Z,98694.53
2023-02-19T06:43:53.725Z,98697.81
2023-02-19T06:46:23.465Z,98699.59
2023-02-19T06:48:52.499Z,98703.03
2023-02-19T06:51:24.975Z,98707.09
2023-02-19T06:53:53.665Z,98710.34
2023-02-19T06:56:29.439Z,98714.59
2023-02-19T06:59:01.848Z,98720.00
2023-02-19T07:01:33.557Z,98719.00
2023-02-19T07:04:04.848Z,98718.88
2023-02-19T07:06:36.313Z,98711.03
2023-02-19T07:09:07.636Z,98719.00
2023-02-19T07:11:40.976Z,98716.41
2023-02-19T07:14:19.840Z,98731.09
2023-02-19T07:16:49.076Z,98726.50
2023-02-19T07:19:19.335Z,98732.22
2023-02-19T07:21:48.959Z,98733.03
2023-02-19T07:24:19.198Z,98725.41
2023-02-19T07:26:49.824Z,98736.31
2023-02-19T07:29:20.915Z,98739.09
2023-02-19T07:31:51.641Z,98739.09
2023-02-19T07:34:21.318Z,98739.25
2023-02-19T07:36:50.507Z,98750.34
2023-02-19T07:39:20.648Z,98752.78
2023-02-19T07:41:54.462Z,98743.81
2023-02-19T07:44:23.343Z,98759.16
2023-02-19T07:46:55.346Z,98767.47
2023-02-19T07:49:24.989Z,98768.16
2023-02-19T07:51:55.726Z,98770.56
2023-02-19T07:54:25.931Z,98773.84
2023-02-19T07:56:56.649Z,98778.91
2023-02-19T07:59:25.762Z,98773.84
2023-02-19T08:02:11.558Z,98773.03
2023-02-19T08:04:41.172Z,98780.34
2023-02-19T08:07:11.638Z,98785.44
2023-02-19T08:09:41.265Z,98790.50
2023-02-19T08:12:30.676Z,98794.56
2023-02-19T08:15:01.315Z,98803.84
2023-02-19T08:17:31.274Z,98801.91
2023-02-19T08:20:00.584Z,98811.22
2023-02-19T08:22:29.454Z,98823.13
2023-02-19T08:24:59.491Z,98827.38
2023-02-19T08:27:30.424Z,98815.13
2023-02-19T08:29:59.133Z,98820.03
2023-02-19T08:32:28.032Z,98813.03
2023-02-19T08:34:57.553Z,98816.44
2023-02-19T08:37:26.932Z,98827.56
2023-02-19T08:39:56.212Z,98825.72
2023-02-19T08:42:26.381Z,98841.75
2023-02-19T08:44:58.410Z,98839.47
2023-02-19T08:47:29.543Z,98839.47
2023-02-19T08:49:59.801Z,98856.75
2023-02-19T08:52:29.992Z,98840.75
2023-02-19T08:54:59.531Z,98852.22
2023-02-19T08:57:29.289Z,98853.19
2023-02-19T08:59:59.919Z,98860.69
2023-02-19T09:02:28.908Z,98860.69
2023-02-19T09:04:58.403Z,98868.38
2023-02-19T09:07:28.229Z,98869.19
2023-02-19T09:09:59.170Z,98874.25
2023-02-19T09:12:28.774Z,98863.66
2023-02-19T09:15:00.718Z,98867.88
2023-02-19T09:17:30.411Z,98867.41
2023-02-19T09:19:59.417Z,98870.16
2023-02-19T09:22:28.790Z,98873.25
2023-02-19T09:24:57.593Z,98876.06
2023-02-19T09:27:27.937Z,98876.06
2023-02-19T09:29:58.823Z,98871.31
2023-02-19T09:32:28.335Z,98877.19
2023-02-19T09:34:57.330Z,98881.94
2023-02-19T09:37:28.858Z,98878.34
2023-02-19T09:39:59.321Z,98886.50
2023-02-19T09:42:33.032Z,98893.84
2023-02-19T09:45:07.195Z,98886.50
2023-02-19T09:47:37.995Z,98889.78
2023-02-19T09:50:12.044Z,98896.31
2023-02-19T09:52:50.496Z,98904.00
2023-02-19T09:55:33.421Z,98891.56
2023-02-19T09:58:19.587Z,98886.84
2023-02-19T10:00:52.758Z,98890.47
2023-02-19T10:03:30.952Z,98892.75
2023-02-19T10:06:02.810Z,98897.19
2023-02-19T10:08:37.846Z,98890.16
2023-02-19T10:11:07.755Z,98899.78
2023-02-19T10:13:42.834Z,98898.63
2023-02-19T10:16:18.617Z,98900.09
2023-02-19T10:18:49.606Z,98894.06
2023-02-19T10:21:25.654Z,98908.44
2023-02-19T10:24:02.262Z,98909.06
2023-02-19T10:26:35.400Z,98907.47
2023-02-19T10:29:04.946Z,98907.47
2023-02-19T10:31:35.638Z,98909.06
2023-02-19T10:34:06.622Z,98904.84
2023-02-19T10:36:42.166Z,98907.13
2023-02-19T10:39:42.222Z,98903.84
2023-02-19T10:42:47.067Z,98905.16
2023-02-19T10:45:23.617Z,98909.41
2023-02-19T10:47:55.910Z,98911.84
2023-02-19T10:50:32.598Z,98917.56
2023-02-19T10:53:03.582Z,98930.34
2023-02-19T10:55:38.101Z,98933.91
2023-02-19T10:58:27.768Z,98933.44
2023-02-19T11:01:15.590Z,98932.94
2023-02-19T11:03:45.638Z,98952.53
2023-02-19T11:06:19.210Z,98953.84
2023-02-19T11:08:56.546Z,98947.97
2023-02-19T11:11:37.679Z,98960.72
2023-02-19T11:14:17.122Z,98966.91
2023-02-19T11:16:49.812Z,98964.31
2023-02-19T11:19:37.485Z,98968.22
2023-02-19T11:22:30.396Z,98966.59
2023-02-19T11:25:07.897Z,98969.88
2023-02-19T11:27:55.214Z,98965.28
2023-02-19T11:30:43.395Z,98957.09
2023-02-19T11:33:31.676Z,98954.63
2023-02-19T11:36:33.856Z,98952.50
2023-02-19T11:39:23.834Z,98957.59
2023-02-19T11:42:13.200Z,98960.53
2023-02-19T11:45:01.870Z,98958.88
2023-02-19T11:48:05.340Z,98967.22
2023-02-19T11:50:53.735Z,98941.88
2023-02-19T11:53:32.755Z,98961.34
2023-02-19T11:56:19.946Z,98953.16
2023-02-19T11:59:05.007Z,98954.00
2023-02-19T12:01:59.471Z,98946.47
2023-02-19T12:05:23.825Z,98957.41
2023-02-19T12:08:26.390Z,98960.84
2023-02-19T12:11:54.102Z,98959.03
2023-02-19T12:15:07.178Z,98967.88
2023-02-19T12:18:00.145Z,98972.13
2023-02-19T12:20:41.702Z,98971.31
2023-02-19T12:24:03.190Z,98967.72
2023-02-19T12:26:45.351Z,98967.53
2023-02-19T12:29:34.330Z,98974.06
2023-02-19T12:32:35.709Z,98970.63
2023-02-19T12:35:46.151Z,98961.94
2023-02-19T12:38:34.080Z,98973.09
2023-02-19T12:41:21.055Z,98979.97
2023-02-19T12:44:01.345Z,98968.69
2023-02-19T12:46:38.129Z,98979.63
2023-02-19T12:49:15.183Z,98981.09
2023-02-19T12:51:50.576Z,98959.50
2023-02-19T12:54:30.140Z,98959.03
2023-02-19T12:57:07.570Z,98965.38
2023-02-19T12:59:47.992Z,98965.06
2023-02-19T13:02:27.220Z,98972.75
2023-02-19T13:05:05.230Z,98962.28
2023-02-19T13:07:40.335Z,98968.00
2023-02-19T13:10:29.027Z,98969.16
2023-02-19T13:13:02.780Z,98970.78
2023-02-19T13:15:40.272Z,98974.06
2023-02-19T13:18:18.324Z,98974.53
2023-02-19T13:20:51.738Z,98960.31
2023-02-19T13:23:46.554Z,98958.69
2023-02-19T13:26:50.980Z,98954.59
2023-02-19T13:29:53.597Z,98948.38
2023-02-19T13:33:01.033Z,98957.41
2023-02-19T13:36:13.879Z,98956.41
2023-02-19T13:38:47.419Z,98967.56
2023-02-19T13:41:28.528Z,98957.88
2023-02-19T13:44:03.235Z,98957.88
2023-02-19T13:46:43.648Z,98957.09
2023-02-19T13:49:52.866Z,98953.47
2023-02-19T13:52:43.229Z,98959.38
2023-02-19T13:55:53.689Z,98957.25
2023-02-19T13:59:01.512Z,98958.84
2023-02-19T14:02:16.089Z,98965.91
2023-02-19T14:05:12.476Z,98969.84
2023-02-19T14:08:02.447Z,98974.88
2023-02-19T14:11:02.816Z,98975.72
2023-02-19T14:14:06.616Z,98980.47
2023-02-19T14:16:55.001Z,98984.53
2023-02-19T14:19:54.369Z,98991.75
2023-02-19T14:23:18.551Z,98980.66
2023-02-19T14:26:01.179Z,98986.50
2023-02-19T14:28:47.246Z,98986.38
2023-02-19T14:31:38.679Z,98986.50
2023-02-19T14:34:22.992Z,98987.81
2023-02-19T14:37:00.743Z,98988.16
2023-02-19T14:39:35.189Z,98992.22
2023-02-19T14:42:10.628Z,98989.47
2023-02-19T14:44:49.503Z,98985.84
2023-02-19T14:47:22.975Z,98991.06
2023-02-19T14:49:55.591Z,98998.28
2023-02-19T14:52:37.371Z,98997.97
2023-02-19T14:55:16.412Z,99007.78
2023-02-19T14:57:50.669Z,99013.66
2023-02-19T15:00:29.653Z,99019.03
2023-02-19T15:03:00.681Z,99030.81
2023-02-19T15:05:34.280Z,99035.25
2023-02-19T15:08:13.667Z,99033.28
2023-02-19T15:10:45.948Z,99034.59
2023-02-19T15:13:27.275Z,99030.19
2023-02-19T15:15:59.026Z,99034.44
2023-02-19T15:18:30.000Z,99027.25
2023-02-19T15:21:06.751Z,99042.63
2023-02-19T15:23:38.210Z,99041.81
2023-02-19T15:26:21.668Z,99047.19
2023-02-19T15:29:01.625Z,99049.19
2023-02-19T15:31:31.328Z,99051.59
2023-02-19T15:34:01.228Z,99052.28
2023-02-19T15:36:34.537Z,99049.97
2023-02-19T15:39:06.574Z,99047.53
2023-02-19T15:41:38.217Z,99046.72
2023-02-19T15:44:35.611Z,99047.03
2023-02-19T15:47:18.607Z,99043.75
2023-02-19T15:49:58.950Z,99054.88
2023-02-19T15:52:45.311Z,99052.28
2023-02-19T15:55:44.559Z,99050.28
2023-02-19T15:58:23.717Z,99052.28
2023-02-19T16:00:58.505Z,99049.47
2023-02-19T16:03:31.145Z,99043.44
2023-02-19T16:06:03.547Z,99048.97
2023-02-19T16:08:35.666Z,99045.72
2023-02-19T16:11:27.492Z,99026.78
2023-02-19T16:14:20.225Z,99031.00
2023-02-19T16:16:53.388Z,99026.78
2023-02-19T16:19:28.419Z,99024.78
2023-02-19T16:21:59.595Z,99020.38
2023-02-19T16:24:35.492Z,99020.22
2023-02-19T16:27:08.414Z,99014.50
2023-02-19T16:29:38.090Z,99001.75
2023-02-19T16:32:16.490Z,99008.59
2023-02-19T16:34:49.942Z,99002.22
2023-02-19T16:37:38.186Z,99005.81
2023-02-19T16:41:04.279Z,99004.22
2023-02-19T16:43:43.682Z,98995.69
2023-02-19T16:46:15.412Z,98999.13
2023-02-19T16:48:44.349Z,99005.81
2023-02-19T16:51:23.838Z,99010.41
2023-02-19T16:53:52.265Z,99010.41
2023-02-19T16:56:23.643Z,99014.97
2023-02-19T16:58:54.022Z,99015.28
2023-02-19T17:01:23.033Z,99020.03
2023-02-19T17:03:54.866Z,99015.63
2023-02-19T17:06:23.835Z,99022.97
2023-02-19T17:08:53.288Z,99019.84
2023-02-19T17:11:23.047Z,99018.06
2023-02-19T17:13:53.930Z,99024.75
2023-02-19T17:16:27.260Z,99028.38
2023-02-19T17:18:57.116Z,99031.97
2023-02-19T17:21:28.216Z,99028.84
2023-02-19T17:23:57.796Z,99042.06
2023-02-19T17:26:29.235Z,99040.44
2023-02-19T17:29:00.436Z,99055.44
2023-02-19T17:31:30.005Z,99056.44
2023-02-19T17:33:58.993Z,99064.59
2023-02-19T17:36:30.961Z,99066.56
2023-02-19T17:39:01.103Z,99081.41
2023-02-19T17:41:31.060Z,99086.63
2023-02-19T17:44:01.787Z,99098.19
2023-02-19T17:46:30.778Z,99097.38
2023-02-19T17:48:59.676Z,99100.13
2023-02-19T17:51:28.424Z,99102.94
2023-02-19T17:53:57.012Z,99097.84
2023-02-19T17:56:28.447Z,99122.50
2023-02-19T17:58:59.186Z,99113.84
2023-02-19T18:01:29.594Z,99117.28
2023-02-19T18:03:59.230Z,99118.25
2023-02-19T18:06:28.644Z,99122.69
2023-02-19T18:08:58.616Z,99128.03
2023-02-19T18:11:28.151Z,99130.16
2023-02-19T18:13:57.103Z,99138.81
2023-02-19T18:16:28.416Z,99143.22
2023-02-19T18:18:58.456Z,99143.22
2023-02-19T18:21:28.879Z,99146.78
2023-02-19T18:23:59.543Z,99159.72
2023-02-19T18:26:28.461Z,99162.78
2023-02-19T18:28:58.527Z,99170.63
2023-02-19T18:31:29.967Z,99163.75
2023-02-19T18:34:00.100Z,99158.53
2023-02-19T18:36:29.133Z,99173.56
2023-02-19T18:38:58.655Z,99167.50
2023-02-19T18:41:28.049Z,99168.31
2023-02-19T18:43:57.492Z,99164.88
2023-02-19T18:46:25.943Z,99168.47
2023-02-19T18:48:57.853Z,99171.09
2023-02-19T18:51:28.403Z,99165.34
2023-02-19T18:53:58.425Z,99168.28
2023-02-19T18:56:30.072Z,99169.72
2023-02-19T18:59:01.084Z,99173.97
2023-02-19T19:01:30.598Z,99172.34
2023-02-19T19:04:02.136Z,99172.34
2023-02-19T19:06:32.007Z,99180.31
2023-02-19T19:09:01.531Z,99176.22
2023-02-19T19:11:31.047Z,99178.69
2023-02-19T19:13:59.821Z,99171.81
2023-02-19T19:16:31.107Z,99180.78
2023-02-19T19:19:01.837Z,99175.69
2023-02-19T19:21:32.268Z,99160.72
2023-02-19T19:24:01.216Z,99160.84
2023-02-19T19:26:29.713Z,99156.59
2023-02-19T19:28:59.386Z,99158.91
2023-02-19T19:31:36.182Z,99159.06
2023-02-19T19:34:07.257Z,99160.03
2023-02-19T19:36:36.979Z,99164.75
2023-02-19T19:39:07.340Z,99163.09
2023-02-19T19:41:36.902Z,99161.63
2023-02-19T19:44:06.618Z,99159.00
2023-02-19T19:46:36.479Z,99159.84
2023-02-19T19:49:07.846Z,99173.72
2023-02-19T19:51:37.804Z,99169.44
2023-02-19T19:54:09.018Z,99169.75
2023-02-19T19:56:43.732Z,99167.16
2023-02-19T19:59:13.464Z,99169.75
2023-02-19T20:01:50.270Z,99172.50
2023-02-19T20:04:23.361Z,99178.03
2023-02-19T20:06:52.191Z,99171.22
2023-02-19T20:09:21.758Z,99168.06
2023-02-19T20:11:53.886Z,99168.59
2023-02-19T20:14:26.766Z,99174.91
2023-02-19T20:16:57.984Z,99172.31
2023-02-19T20:19:29.514Z,99181.13
2023-02-19T20:21:58.467Z,99181.66
2023-02-19T20:24:29.724Z,99166.28
2023-02-19T20:27:02.000Z,99167.09
2023-02-19T20:29:33.662Z,99175.91
2023-02-19T20:32:04.119Z,99165.78
2023-02-19T20:34:35.118Z,99175.22
2023-02-19T20:37:04.624Z,99185.66
2023-02-19T20:39:37.499Z,99192.69
2023-02-19T20:42:07.455Z,99188.28
2023-02-19T20:44:36.876Z,99177.84
2023-02-19T20:47:06.905Z,99185.00
2023-02-19T20:49:37.269Z,99185.84
2023-02-19T20:52:09.603Z,99179.94
2023-02-19T20:54:39.432Z,99183.22
2023-02-19T20:57:10.060Z,99185.66
2023-02-19T20:59:40.738Z,99184.72
2023-02-19T21:02:24.983Z,99189.78
2023-02-19T21:04:54.812Z,99178.53
2023-02-19T21:07:24.994Z,99181.44
2023-02-19T21:09:54.089Z,99180.63
2023-02-19T21:12:23.962Z,99189.28
2023-02-19T21:14:53.015Z,99187.44
2023-02-19T21:17:22.071Z,99192.69
2023-02-19T21:19:51.590Z,99204.63
2023-02-19T21:22:22.581Z,99200.38
2023-02-19T21:24:53.625Z,99204.78
2023-02-19T21:27:23.708Z,99207.25
2023-02-19T21:29:52.723Z,99208.66
2023-02-19T21:32:21.778Z,99223.22
2023-02-19T21:34:51.338Z,99220.59
2023-02-19T21:37:22.312Z,99216.47
2023-02-19T21:39:51.627Z,99216.34
2023-02-19T21:42:21.103Z,99223.22
2023-02-19T21:44:51.093Z,99216.25
2023-02-19T21:47:20.672Z,99219.41
2023-02-19T21:49:49.643Z,99215.81
2023-02-19T21:52:19.095Z,99210.75
2023-02-19T21:54:49.968Z,99212.53
2023-02-19T21:57:20.013Z,99213.97
2023-02-19T21:59:48.441Z,99225.38
2023-02-19T22:02:20.463Z,99220.31
2023-02-19T22:04:55.365Z,99223.06
2023-02-19T22:07:25.048Z,99223.06
2023-02-19T22:09:55.476Z,99235.97
2023-02-19T22:12:25.888Z,99227.44
2023-02-19T22:14:54.428Z,99222.69
2023-02-19T22:17:24.400Z,99226.94
2023-02-19T22:19:53.351Z,99224.00
2023-02-19T22:22:22.365Z,99216.50
2023-02-19T22:24:51.850Z,99227.22
2023-02-19T22:27:24.555Z,99235.78
2023-02-19T22:29:54.048Z,99237.97
2023-02-19T22:32:24.084Z,99247.59
2023-02-19T22:34:53.373Z,99255.56
2023-02-19T22:37:22.201Z,99253.94
2023-02-19T22:39:52.588Z,99255.06
2023-02-19T22:42:24.870Z,99253.53
2023-02-19T22:44:54.896Z,99261.66
2023-02-19T22:47:24.880Z,99252.78
2023-02-19T22:49:53.297Z,99254.63
2023-02-19T22:52:28.483Z,99257.94
2023-02-19T22:54:57.640Z,99269.91
2023-02-19T22:57:29.345Z,99266.25
2023-02-19T22:59:58.752Z,99262.66
2023-02-19T23:02:27.170Z,99268.09
2023-02-19T23:04:57.168Z,99269.19
2023-02-19T23:07:26.161Z,99264.25
2023-02-19T23:09:55.043Z,99270.88
2023-02-19T23:12:25.368Z,99270.19
2023-02-19T23:14:57.206Z,99260.88
2023-02-19T23:17:27.310Z,99259.69
2023-02-19T23:19:56.468Z,99252.44
2023-02-19T23:22:25.336Z,99258.19
2023-02-19T23:24:54.960Z,99258.22
2023-02-19T23:27:24.550Z,99258.78
2023-02-19T23:29:55.384Z,99249.19
2023-02-19T23:32:23.949Z,99237.41
2023-02-19T23:34:53.357Z,99245.94
2023-02-19T23:37:23.482Z,99252.38
2023-02-19T23:39:52.561Z,99252.13
2023-02-19T23:42:22.646Z,99261.19
2023-02-19T23:44:52.847Z,99257.47
2023-02-19T23:47:23.312Z,99263.41
2023-02-19T23:49:53.482Z,99262.97
2023-02-19T23:52:23.821Z,99277.78
2023-02-19T23:54:53.849Z,99271.78
2023-02-19T23:57:23.490Z,99275.63
2023-02-19T23:59:52.589Z,99268.50
